Ocean Beach, NY (11770)

12:09 PM EDT on July 23, 2016 (GMT -0400)
Fair Harbor Fire Department | | Change Station

Elev 0 ft 40.64 °N, 73.19 °W | Updated 8 seconds ago

Partly Cloudy
Partly Cloudy
84.1 °F
Feels Like 87 °F
N
10.5
Wind Variable Wind from SW
Gusts 21.0 mph

Today
High -- | Low -- °F
--% Chance of Precip.
Yesterday
High -- | Low -- °F
Precip. -- in
Pressure 29.83 in
Visibility 10.0 miles
Clouds Few 6000 ft
Few 25000 ft
Heat Index 87 °F
Dew Point 68 °F
Humidity 59%
Rainfall 0.00 in
Snow Depth Not available.
5:41 AM 8:16 PM
Waning Gibbous, 84% visible
METAR KISP 231556Z 31014G20KT 10SM FEW060 FEW250 33/16 A2983 RMK AO2 SLP099 T03280156
Pressure 29.83 in
Visibility 10.0 miles
Clouds Few 6000 ft
Few 25000 ft
Heat Index 87 °F
Dew Point 68 °F
Humidity 59%
Rainfall 0.00 in
Snow Depth Not available.
5:41 AM 8:16 PM
Waning Gibbous, 84% visible
METAR KISP 231556Z 31014G20KT 10SM FEW060 FEW250 33/16 A2983 RMK AO2 SLP099 T03280156

10-Day Weather Forecast

Almanac

Astronomy

Jul. 23, 2016 Rise Set
Actual Time
Civil Twilight
Nautical Twilight
Astronomical Twilight
Moon
Length of Visible Light
Length of Day
Tomorrow will be .
, % of the Moon is Illuminated

Today's Extremes

State Highs State Lows

Community

WunderPhotos

Upload Photos

1,926,857 photos uploaded!

WunderBlog® & News

Nearby

Air Quality

  Air Quality AQ Index Pollutant
Not available.

Snow Depth

Station Depth Elevation

Earthquake Activity

City Distance Mag. Time & Date
Minimum magnitude displayed is 2.5.

Coastal Water Temperatures

Place Temperature

Stations

Nearby Weather Stations

Station Location Temp. Windchill Dew Point Humidity Wind Precip. Elev Updated Type
                   

Watches & Warnings

There are currently no watches in effect.